createdAt,value
2022-08-21T00:00:35.315Z,26.04
2022-08-21T00:01:14.633Z,26.06
2022-08-21T00:01:51.584Z,26.07
2022-08-21T00:02:28.363Z,26.05
2022-08-21T00:03:06.848Z,26.05
2022-08-21T00:03:46.087Z,26.05
2022-08-21T00:04:29.447Z,26.04
2022-08-21T00:05:10.461Z,26.04
2022-08-21T00:05:52.888Z,26.04
2022-08-21T00:06:38.428Z,25.90
2022-08-21T00:07:26.755Z,25.85
2022-08-21T00:08:04.990Z,25.79
2022-08-21T00:08:42.286Z,25.73
2022-08-21T00:09:20.691Z,25.83
2022-08-21T00:09:57.957Z,25.83
2022-08-21T00:10:35.878Z,25.85
2022-08-21T00:11:12.965Z,25.85
2022-08-21T00:11:50.729Z,25.85
2022-08-21T00:12:29.185Z,25.86
2022-08-21T00:13:08.074Z,25.90
2022-08-21T00:13:46.508Z,25.95
2022-08-21T00:14:24.703Z,25.94
2022-08-21T00:15:02.511Z,25.96
2022-08-21T00:15:39.767Z,25.96
2022-08-21T00:16:17.372Z,25.96
2022-08-21T00:16:57.215Z,25.97
2022-08-21T00:17:39.666Z,25.98
2022-08-21T00:18:21.178Z,25.98
2022-08-21T00:19:02.940Z,25.96
2022-08-21T00:19:43.194Z,25.97
2022-08-21T00:20:24.810Z,25.95
2022-08-21T00:21:09.256Z,25.96
2022-08-21T00:21:59.239Z,25.94
2022-08-21T00:23:14.537Z,25.95
2022-08-21T00:23:53.457Z,25.98
2022-08-21T00:24:30.513Z,25.94
2022-08-21T00:25:07.587Z,25.95
2022-08-21T00:25:45.084Z,25.95
2022-08-21T00:26:22.874Z,25.96
2022-08-21T00:26:59.973Z,25.94
2022-08-21T00:27:37.598Z,25.97
2022-08-21T00:28:16.792Z,25.95
2022-08-21T00:28:54.330Z,25.90
2022-08-21T00:29:31.899Z,25.91
2022-08-21T00:30:09.102Z,25.90
2022-08-21T00:30:46.263Z,25.93
2022-08-21T00:31:23.736Z,25.93
2022-08-21T00:32:01.257Z,25.91
2022-08-21T00:32:40.453Z,25.91
2022-08-21T00:33:19.209Z,25.93
2022-08-21T00:34:00.758Z,25.95
2022-08-21T00:34:42.452Z,25.94
2022-08-21T00:35:30.951Z,25.92
2022-08-21T00:36:18.580Z,25.92
2022-08-21T00:37:04.827Z,25.94
2022-08-21T00:37:51.424Z,25.97
2022-08-21T00:38:38.204Z,25.94
2022-08-21T00:39:15.501Z,25.95
2022-08-21T00:39:53.252Z,25.92
2022-08-21T00:40:32.564Z,25.95
2022-08-21T00:41:29.823Z,25.92
2022-08-21T00:42:08.157Z,25.91
2022-08-21T00:42:53.176Z,25.92
2022-08-21T00:43:40.439Z,25.88
2022-08-21T00:44:25.922Z,25.80
2022-08-21T00:45:06.931Z,25.63
2022-08-21T00:45:46.026Z,25.65
2022-08-21T00:46:28.249Z,25.62
2022-08-21T00:47:04.953Z,25.41
2022-08-21T00:47:42.726Z,25.38
2022-08-21T00:48:20.011Z,25.40
2022-08-21T00:48:59.087Z,25.40
2022-08-21T00:49:35.887Z,25.43
2022-08-21T00:50:19.654Z,25.51
2022-08-21T00:50:59.819Z,25.52
2022-08-21T00:51:42.104Z,25.55
2022-08-21T00:52:30.569Z,25.55
2022-08-21T00:53:17.082Z,25.52
2022-08-21T00:54:10.755Z,25.53
2022-08-21T00:54:55.524Z,25.56
2022-08-21T00:55:34.237Z,25.59
2022-08-21T00:56:11.214Z,25.62
2022-08-21T00:56:48.520Z,25.62
2022-08-21T00:57:28.242Z,25.67
2022-08-21T00:58:07.310Z,25.68
2022-08-21T00:58:46.525Z,25.70
2022-08-21T00:59:25.818Z,25.63
2022-08-21T01:00:03.297Z,25.65
2022-08-21T01:00:41.860Z,25.62
2022-08-21T01:01:19.546Z,25.63
2022-08-21T01:01:56.601Z,25.65
2022-08-21T01:02:35.316Z,25.67
2022-08-21T01:03:15.030Z,25.66
2022-08-21T01:03:56.045Z,25.62
2022-08-21T01:04:36.845Z,25.63
2022-08-21T01:05:19.095Z,25.60
2022-08-21T01:06:00.300Z,25.60
2022-08-21T01:06:43.263Z,25.55
2022-08-21T01:07:24.593Z,25.57
2022-08-21T01:08:10.596Z,25.58
2022-08-21T01:08:57.963Z,25.67
2022-08-21T01:09:40.955Z,25.63
2022-08-21T01:10:20.584Z,25.66
2022-08-21T01:11:03.780Z,25.63
2022-08-21T01:11:48.580Z,25.59
2022-08-21T01:12:33.935Z,25.63
2022-08-21T01:13:17.449Z,25.64
2022-08-21T01:13:54.543Z,25.61
2022-08-21T01:14:32.105Z,25.63
2022-08-21T01:15:09.022Z,25.64
2022-08-21T01:15:46.224Z,25.68
2022-08-21T01:16:23.188Z,25.68
2022-08-21T01:17:00.967Z,25.62
2022-08-21T01:17:38.718Z,25.62
2022-08-21T01:18:17.363Z,25.66
2022-08-21T01:18:55.364Z,25.63
2022-08-21T01:19:32.997Z,25.68
2022-08-21T01:20:11.126Z,25.67
2022-08-21T01:20:48.965Z,25.62
2022-08-21T01:21:28.381Z,25.63
2022-08-21T01:22:05.864Z,25.72
2022-08-21T01:22:43.657Z,25.68
2022-08-21T01:23:22.463Z,25.67
2022-08-21T01:24:00.521Z,25.61
2022-08-21T01:24:38.562Z,25.62
2022-08-21T01:25:18.137Z,25.64
2022-08-21T01:25:55.864Z,25.62
2022-08-21T01:26:33.920Z,25.64
2022-08-21T01:27:14.851Z,25.63
2022-08-21T01:27:55.517Z,25.61
2022-08-21T01:28:38.987Z,25.61
2022-08-21T01:29:29.248Z,25.57
2022-08-21T01:30:13.829Z,25.56
2022-08-21T01:30:52.696Z,25.54
2022-08-21T01:31:32.535Z,25.52
2022-08-21T01:32:13.187Z,25.54
2022-08-21T01:32:50.469Z,25.51
2022-08-21T01:33:28.514Z,25.52
2022-08-21T01:34:06.673Z,25.50
2022-08-21T01:34:44.245Z,25.51
2022-08-21T01:35:22.153Z,25.52
2022-08-21T01:36:00.850Z,25.49
2022-08-21T01:36:38.849Z,25.51
2022-08-21T01:37:17.915Z,25.48
2022-08-21T01:37:55.291Z,25.42
2022-08-21T01:38:32.725Z,25.43
2022-08-21T01:39:10.982Z,25.43
2022-08-21T01:39:49.240Z,25.43
2022-08-21T01:40:27.093Z,25.44
2022-08-21T01:41:05.400Z,25.43
2022-08-21T01:41:43.525Z,25.42
2022-08-21T01:42:21.280Z,25.39
2022-08-21T01:42:59.208Z,25.39
2022-08-21T01:43:40.828Z,25.38
2022-08-21T01:44:22.992Z,25.44
2022-08-21T01:45:06.335Z,25.46
2022-08-21T01:45:52.544Z,25.43
2022-08-21T01:46:39.320Z,25.40
2022-08-21T01:47:24.070Z,25.36
2022-08-21T01:48:04.405Z,25.38
2022-08-21T01:48:42.534Z,25.40
2022-08-21T01:49:20.318Z,25.42
2022-08-21T01:49:57.631Z,25.44
2022-08-21T01:50:35.176Z,25.42
2022-08-21T01:51:12.435Z,25.42
2022-08-21T01:51:49.578Z,25.43
2022-08-21T01:52:26.421Z,25.43
2022-08-21T01:53:03.569Z,25.36
2022-08-21T01:53:42.854Z,25.33
2022-08-21T01:54:20.946Z,25.34
2022-08-21T01:54:57.953Z,25.35
2022-08-21T01:55:35.361Z,25.37
2022-08-21T01:56:12.916Z,25.37
2022-08-21T01:56:50.720Z,25.39
2022-08-21T01:57:27.963Z,25.40
2022-08-21T01:58:06.532Z,25.40
2022-08-21T01:58:47.771Z,25.42
2022-08-21T01:59:26.232Z,25.41
2022-08-21T02:00:03.892Z,25.43
2022-08-21T02:00:42.504Z,25.45
2022-08-21T02:01:22.734Z,25.42
2022-08-21T02:02:05.214Z,25.40
2022-08-21T02:02:49.809Z,25.42
2022-08-21T02:03:35.590Z,25.42
2022-08-21T02:04:16.721Z,25.46
2022-08-21T02:05:04.303Z,25.44
2022-08-21T02:05:48.226Z,25.45
2022-08-21T02:06:28.848Z,25.46
2022-08-21T02:07:08.449Z,25.49
2022-08-21T02:07:47.718Z,25.48
2022-08-21T02:08:25.207Z,25.45
2022-08-21T02:09:03.260Z,25.43
2022-08-21T02:09:42.332Z,25.44
2022-08-21T02:10:19.550Z,25.47
2022-08-21T02:10:57.994Z,25.46
2022-08-21T02:11:35.410Z,25.44
2022-08-21T02:12:13.310Z,25.40
2022-08-21T02:12:52.246Z,25.44
2022-08-21T02:13:29.847Z,25.45
2022-08-21T02:14:08.420Z,25.45
2022-08-21T02:14:46.611Z,25.43
2022-08-21T02:15:24.662Z,25.42
2022-08-21T02:16:02.438Z,25.40
2022-08-21T02:16:40.354Z,25.40
2022-08-21T02:17:18.297Z,25.42
2022-08-21T02:17:55.758Z,25.40
2022-08-21T02:18:33.662Z,25.39
2022-08-21T02:19:12.175Z,25.36
2022-08-21T02:19:50.021Z,25.39
2022-08-21T02:20:36.612Z,25.38
2022-08-21T02:21:14.059Z,25.38
2022-08-21T02:21:51.911Z,25.38
2022-08-21T02:22:28.919Z,25.39
2022-08-21T02:23:06.535Z,25.39
2022-08-21T02:23:45.233Z,25.40
2022-08-21T02:24:22.100Z,25.39
2022-08-21T02:25:03.601Z,25.39
2022-08-21T02:25:43.236Z,25.36
2022-08-21T02:26:21.047Z,25.37
2022-08-21T02:26:58.360Z,25.35
2022-08-21T02:27:36.183Z,25.37
2022-08-21T02:28:17.731Z,25.37
2022-08-21T02:28:56.580Z,25.33
2022-08-21T02:29:34.385Z,25.32
2022-08-21T02:30:11.456Z,25.31
2022-08-21T02:30:49.482Z,25.34
2022-08-21T02:31:27.195Z,25.34
2022-08-21T02:32:05.278Z,25.36
2022-08-21T02:32:43.351Z,25.38
2022-08-21T02:33:21.391Z,25.37
2022-08-21T02:33:59.746Z,25.39
2022-08-21T02:34:37.582Z,25.39
2022-08-21T02:35:15.932Z,25.39
2022-08-21T02:35:53.832Z,25.40
2022-08-21T02:36:35.099Z,25.40
2022-08-21T02:37:21.827Z,25.38
2022-08-21T02:38:08.416Z,25.33
2022-08-21T02:38:49.470Z,25.33
2022-08-21T02:39:27.854Z,25.35
2022-08-21T02:40:15.390Z,25.35
2022-08-21T02:40:56.232Z,25.35
2022-08-21T02:41:36.863Z,25.31
2022-08-21T02:42:14.487Z,25.33
2022-08-21T02:42:52.385Z,25.33
2022-08-21T02:43:29.243Z,25.32
2022-08-21T02:44:06.067Z,25.35
2022-08-21T02:44:44.701Z,25.36
2022-08-21T02:45:21.772Z,25.35
2022-08-21T02:45:58.970Z,25.35
2022-08-21T02:46:36.163Z,25.36
2022-08-21T02:47:38.041Z,25.34
2022-08-21T02:48:34.200Z,25.34
2022-08-21T02:49:16.879Z,25.32
2022-08-21T02:50:03.816Z,25.35
2022-08-21T02:50:52.021Z,25.31
2022-08-21T02:51:35.444Z,25.32
2022-08-21T02:52:20.160Z,25.31
2022-08-21T02:53:04.473Z,25.31
2022-08-21T02:53:48.468Z,25.33
2022-08-21T02:54:37.557Z,25.33
2022-08-21T02:55:25.454Z,25.32
2022-08-21T02:56:09.681Z,25.33
2022-08-21T02:56:55.422Z,25.30
2022-08-21T02:57:41.539Z,25.30
2022-08-21T02:58:33.507Z,25.32
2022-08-21T02:59:23.649Z,25.29
2022-08-21T03:04:29.064Z,25.29
2022-08-21T03:05:19.298Z,25.29
2022-08-21T03:06:05.609Z,25.28
2022-08-21T03:06:50.476Z,25.28
2022-08-21T03:07:35.870Z,25.27
2022-08-21T03:08:22.067Z,25.22
2022-08-21T03:09:07.259Z,25.25
2022-08-21T03:09:56.007Z,25.25
2022-08-21T03:10:38.580Z,25.26
2022-08-21T03:11:25.764Z,25.26
2022-08-21T03:12:12.623Z,25.27
2022-08-21T03:12:58.343Z,25.26
2022-08-21T03:13:43.754Z,25.26
2022-08-21T03:14:26.335Z,25.25
2022-08-21T03:15:15.080Z,25.25
2022-08-21T03:16:02.986Z,25.26
2022-08-21T03:16:53.665Z,25.27
2022-08-21T03:17:39.361Z,25.27
2022-08-21T03:18:33.161Z,25.25
2022-08-21T03:19:24.587Z,25.23
2022-08-21T03:20:24.700Z,25.24
2022-08-21T03:21:21.604Z,25.24
2022-08-21T03:22:20.469Z,25.24
2022-08-21T03:26:29.096Z,25.21
2022-08-21T03:27:33.688Z,25.22
2022-08-21T03:29:33.861Z,25.21
2022-08-21T03:32:40.072Z,25.20
2022-08-21T03:37:33.326Z,25.21
2022-08-21T03:38:32.014Z,25.19
2022-08-21T03:39:16.397Z,25.19
2022-08-21T03:40:01.436Z,25.17
2022-08-21T03:40:54.875Z,25.20
2022-08-21T03:41:41.824Z,25.17
2022-08-21T03:42:28.400Z,25.19
2022-08-21T03:43:14.342Z,25.18
2022-08-21T03:44:06.262Z,25.18
2022-08-21T03:45:06.264Z,25.18
2022-08-21T03:48:07.503Z,25.16
2022-08-21T03:48:54.233Z,25.16
2022-08-21T03:49:40.553Z,25.16
2022-08-21T03:50:24.075Z,25.16
2022-08-21T03:51:13.205Z,25.18
2022-08-21T03:51:59.651Z,25.16
2022-08-21T04:04:59.568Z,25.15
2022-08-21T04:17:10.009Z,25.10
2022-08-21T04:24:34.225Z,25.09
2022-08-21T04:27:13.522Z,25.11
2022-08-21T04:30:28.983Z,25.11
2022-08-21T04:31:23.234Z,25.11
2022-08-21T04:32:12.114Z,25.10
2022-08-21T04:32:56.080Z,25.10
2022-08-21T04:33:40.719Z,25.07
2022-08-21T04:34:23.792Z,25.08
2022-08-21T04:35:07.225Z,25.06
2022-08-21T04:35:59.181Z,25.07
2022-08-21T04:36:43.919Z,25.06
2022-08-21T04:37:30.072Z,25.07
2022-08-21T04:38:13.146Z,25.05
2022-08-21T04:39:01.634Z,25.05
2022-08-21T04:39:45.621Z,25.06
2022-08-21T04:40:33.126Z,25.08
2022-08-21T04:41:28.018Z,25.07
2022-08-21T04:42:14.428Z,25.06
2022-08-21T04:43:01.980Z,25.06
2022-08-21T04:43:49.570Z,25.08
2022-08-21T04:44:42.120Z,25.08
2022-08-21T04:45:42.552Z,25.06
2022-08-21T04:47:52.922Z,25.08
2022-08-21T04:50:49.012Z,25.05
2022-08-21T04:54:08.120Z,25.07
2022-08-21T04:54:56.138Z,25.04
2022-08-21T04:55:42.834Z,25.03
2022-08-21T04:56:27.310Z,25.03
2022-08-21T04:57:17.527Z,25.06
2022-08-21T04:58:05.278Z,25.06
2022-08-21T04:58:46.074Z,25.06
2022-08-21T04:59:39.110Z,25.07
2022-08-21T05:01:15.510Z,25.07
2022-08-21T05:02:07.838Z,25.06
2022-08-21T05:02:52.748Z,25.03
2022-08-21T05:03:42.882Z,25.04
2022-08-21T05:04:32.570Z,25.03
2022-08-21T05:05:17.765Z,25.02
2022-08-21T05:06:02.095Z,25.04
2022-08-21T05:07:56.962Z,25.00
2022-08-21T05:18:42.677Z,25.03
2022-08-21T05:20:47.531Z,25.01
2022-08-21T05:24:22.728Z,25.01
2022-08-21T05:25:28.243Z,25.01
2022-08-21T05:26:18.803Z,24.99
2022-08-21T05:27:05.138Z,24.98
2022-08-21T05:28:00.599Z,25.02
2022-08-21T05:28:45.652Z,25.00
2022-08-21T05:29:29.099Z,25.02
2022-08-21T05:30:16.208Z,25.05
2022-08-21T05:31:01.971Z,25.03
2022-08-21T05:31:45.958Z,25.03
2022-08-21T05:32:35.458Z,25.04
2022-08-21T05:33:18.641Z,25.04
2022-08-21T05:34:05.305Z,25.03
2022-08-21T05:34:53.690Z,25.03
2022-08-21T05:35:39.994Z,25.02
2022-08-21T05:36:27.361Z,25.01
2022-08-21T05:37:12.436Z,25.02
2022-08-21T05:39:00.288Z,24.99
2022-08-21T05:40:52.801Z,25.00
2022-08-21T05:41:37.459Z,25.01
2022-08-21T05:42:29.503Z,25.00
2022-08-21T05:43:21.353Z,24.97
2022-08-21T05:44:10.361Z,25.01
2022-08-21T05:44:58.887Z,25.01
2022-08-21T05:45:46.278Z,25.01
2022-08-21T05:46:33.621Z,24.98
2022-08-21T05:47:25.746Z,25.03
2022-08-21T05:48:30.599Z,25.04
2022-08-21T05:49:29.177Z,25.04
2022-08-21T05:51:27.828Z,25.03
2022-08-21T05:52:13.443Z,25.03
2022-08-21T05:53:07.006Z,25.04
2022-08-21T05:53:50.942Z,25.03
2022-08-21T05:54:37.450Z,25.07
2022-08-21T05:55:22.544Z,25.07
2022-08-21T05:56:06.182Z,25.07
2022-08-21T05:56:50.568Z,25.09
2022-08-21T05:57:36.308Z,25.09
2022-08-21T05:58:20.797Z,25.07
2022-08-21T05:59:08.596Z,25.03
2022-08-21T05:59:51.844Z,25.01
2022-08-21T06:00:36.129Z,25.00
2022-08-21T06:01:23.412Z,24.98
2022-08-21T06:02:09.525Z,25.01
2022-08-21T06:02:57.361Z,25.02
2022-08-21T06:03:43.856Z,25.03
2022-08-21T06:04:33.958Z,25.02
2022-08-21T06:05:36.485Z,25.04
2022-08-21T06:06:26.203Z,25.04
2022-08-21T06:07:24.453Z,25.08
2022-08-21T06:08:37.632Z,25.08
2022-08-21T06:09:31.196Z,25.09
2022-08-21T06:10:17.632Z,25.09
2022-08-21T06:11:08.660Z,25.08
2022-08-21T06:11:55.758Z,25.08
2022-08-21T06:12:45.091Z,25.07
2022-08-21T06:13:42.108Z,25.07
2022-08-21T06:14:32.969Z,25.06
2022-08-21T06:15:19.946Z,25.04
2022-08-21T06:16:17.091Z,25.00
2022-08-21T06:17:09.880Z,25.01
2022-08-21T06:18:01.582Z,25.01
2022-08-21T06:19:02.778Z,25.04
2022-08-21T06:19:53.602Z,25.03
2022-08-21T06:20:45.068Z,25.08
2022-08-21T06:21:35.935Z,25.03
2022-08-21T06:22:35.797Z,25.04
2022-08-21T06:24:14.076Z,25.08
2022-08-21T06:25:04.445Z,25.10
2022-08-21T06:25:56.223Z,25.10
2022-08-21T06:26:48.358Z,25.08
2022-08-21T06:27:40.544Z,25.08
2022-08-21T06:28:38.418Z,25.08
2022-08-21T06:31:00.609Z,25.10
2022-08-21T06:31:59.628Z,25.09
2022-08-21T06:34:21.310Z,25.09
2022-08-21T06:35:12.361Z,25.09
2022-08-21T06:36:08.078Z,25.08
2022-08-21T06:36:56.080Z,25.08
2022-08-21T06:37:40.982Z,25.10
2022-08-21T06:38:27.719Z,25.09
2022-08-21T06:39:25.382Z,25.09
2022-08-21T06:40:18.587Z,25.15
2022-08-21T06:41:06.452Z,25.12
2022-08-21T06:41:51.751Z,25.11
2022-08-21T06:42:38.152Z,25.13
2022-08-21T06:43:39.214Z,25.16
2022-08-21T06:44:30.650Z,25.14
2022-08-21T06:45:21.647Z,25.14
2022-08-21T06:46:10.505Z,25.14
2022-08-21T06:47:01.349Z,25.15
2022-08-21T06:47:50.082Z,25.14
2022-08-21T06:48:50.620Z,25.17
2022-08-21T06:51:43.730Z,25.12
2022-08-21T06:55:35.652Z,25.13
2022-08-21T06:59:10.041Z,25.15
2022-08-21T07:03:55.949Z,25.15
2022-08-21T07:05:57.819Z,25.16
2022-08-21T07:06:49.823Z,25.14
2022-08-21T07:08:50.518Z,25.14
2022-08-21T07:10:44.521Z,25.17
2022-08-21T07:12:45.338Z,25.18
2022-08-21T07:14:06.132Z,25.19
2022-08-21T07:15:01.944Z,25.20
2022-08-21T07:15:45.960Z,25.16
2022-08-21T07:16:34.195Z,25.18
2022-08-21T07:17:26.327Z,25.16
2022-08-21T07:18:11.323Z,25.18
2022-08-21T07:18:55.725Z,25.18
2022-08-21T07:19:39.739Z,25.19
2022-08-21T07:21:34.869Z,25.18
2022-08-21T07:22:31.975Z,25.19
2022-08-21T07:24:39.265Z,25.16
2022-08-21T07:25:46.924Z,25.16
2022-08-21T07:26:43.104Z,25.19
2022-08-21T07:27:55.724Z,25.18
2022-08-21T07:34:32.629Z,25.19
2022-08-21T07:35:28.682Z,25.15
2022-08-21T07:36:16.013Z,25.16
2022-08-21T07:37:00.026Z,25.19
2022-08-21T07:37:47.135Z,25.20
2022-08-21T07:38:36.830Z,25.22
2022-08-21T07:39:20.333Z,25.20
2022-08-21T07:40:03.810Z,25.21
2022-08-21T07:40:50.687Z,25.17
2022-08-21T07:41:35.649Z,25.17
2022-08-21T07:42:21.603Z,25.20
2022-08-21T07:43:05.739Z,25.18
2022-08-21T07:43:57.674Z,25.17
2022-08-21T07:44:43.592Z,25.15
2022-08-21T07:45:37.985Z,25.19
2022-08-21T07:46:34.123Z,25.17
2022-08-21T07:47:42.298Z,25.17
2022-08-21T07:52:31.884Z,25.11
2022-08-21T07:54:14.521Z,25.14
2022-08-21T07:55:06.379Z,25.15
2022-08-21T07:55:52.581Z,25.15
2022-08-21T08:01:36.639Z,25.18
2022-08-21T08:05:29.742Z,25.19
2022-08-21T08:14:31.415Z,25.21
2022-08-21T08:16:24.154Z,25.20
2022-08-21T08:17:15.323Z,25.22
2022-08-21T08:18:04.613Z,25.21
2022-08-21T08:18:56.082Z,25.22
2022-08-21T08:19:45.113Z,25.20
2022-08-21T08:20:36.577Z,25.24
2022-08-21T08:21:27.404Z,25.24
2022-08-21T08:22:25.986Z,25.21
2022-08-21T08:23:17.561Z,25.24
2022-08-21T08:31:35.146Z,25.25
2022-08-21T08:32:22.091Z,25.26
2022-08-21T08:33:05.096Z,25.26
2022-08-21T08:33:51.084Z,25.23
2022-08-21T08:34:37.904Z,25.22
2022-08-21T08:35:36.563Z,25.24
2022-08-21T08:36:31.193Z,25.24
2022-08-21T08:37:31.505Z,25.24
2022-08-21T08:39:42.151Z,25.30
2022-08-21T08:40:50.649Z,25.28
2022-08-21T08:41:35.634Z,25.29
2022-08-21T08:42:33.450Z,25.24
2022-08-21T08:43:25.104Z,25.28
2022-08-21T08:44:13.882Z,25.28
2022-08-21T08:45:01.323Z,25.27
2022-08-21T08:45:44.655Z,25.28
2022-08-21T08:46:30.125Z,25.25
2022-08-21T08:48:01.662Z,25.26
2022-08-21T08:48:53.009Z,25.27
2022-08-21T08:49:46.537Z,25.30
2022-08-21T08:50:24.308Z,25.32
2022-08-21T08:51:01.314Z,25.29
2022-08-21T08:51:41.249Z,25.28
2022-08-21T08:52:32.540Z,25.28
2022-08-21T08:53:10.607Z,25.28
2022-08-21T08:53:52.500Z,25.31
2022-08-21T08:54:35.816Z,25.29
2022-08-21T08:55:27.041Z,25.26
2022-08-21T08:56:08.863Z,25.30
2022-08-21T08:56:53.701Z,25.28
2022-08-21T08:57:43.171Z,25.29
2022-08-21T08:58:33.453Z,25.29
2022-08-21T08:59:14.055Z,25.27
2022-08-21T08:59:54.474Z,25.27
2022-08-21T09:00:32.503Z,25.26
2022-08-21T09:01:17.434Z,25.29
2022-08-21T09:01:54.714Z,25.28
2022-08-21T09:02:32.793Z,25.28
2022-08-21T09:03:10.836Z,25.27
2022-08-21T09:03:48.108Z,25.28
2022-08-21T09:04:35.257Z,25.26
2022-08-21T09:05:25.195Z,25.27
2022-08-21T09:06:22.019Z,25.26
2022-08-21T09:06:57.557Z,25.28
2022-08-21T09:07:54.498Z,25.30
2022-08-21T09:08:35.577Z,25.27
2022-08-21T09:09:23.155Z,25.29
2022-08-21T09:10:24.379Z,25.32
2022-08-21T09:11:02.134Z,25.31
2022-08-21T09:11:42.931Z,25.27
2022-08-21T09:12:27.980Z,25.29
2022-08-21T09:13:21.379Z,25.32
2022-08-21T09:14:09.682Z,25.28
2022-08-21T09:14:51.185Z,25.28
2022-08-21T09:15:38.812Z,25.29
2022-08-21T09:16:14.239Z,25.25
2022-08-21T09:16:52.806Z,25.28
2022-08-21T09:17:43.971Z,25.31
2022-08-21T09:18:37.090Z,25.29
2022-08-21T09:19:12.892Z,25.29
2022-08-21T09:19:54.833Z,25.30
2022-08-21T09:20:50.717Z,25.31
2022-08-21T09:21:33.105Z,25.27
2022-08-21T09:22:14.195Z,25.34
2022-08-21T09:23:04.491Z,25.33
2022-08-21T09:23:58.968Z,25.34
2022-08-21T09:24:37.117Z,25.30
2022-08-21T09:25:20.658Z,25.30
2022-08-21T09:26:19.760Z,25.23
2022-08-21T09:27:00.787Z,25.32
2022-08-21T09:27:38.390Z,25.29
2022-08-21T09:28:16.120Z,25.27
2022-08-21T09:28:57.187Z,25.29
2022-08-21T09:29:37.674Z,25.34
2022-08-21T09:30:19.685Z,25.32
2022-08-21T09:31:00.104Z,25.34
2022-08-21T09:31:42.272Z,25.32
2022-08-21T09:32:37.097Z,25.30
2022-08-21T09:33:23.734Z,25.31
2022-08-21T09:34:12.814Z,25.33
2022-08-21T09:35:08.162Z,25.37
2022-08-21T09:35:52.222Z,25.34
2022-08-21T09:36:45.517Z,25.33
2022-08-21T09:37:22.807Z,25.38
2022-08-21T09:37:59.493Z,25.37
2022-08-21T09:38:36.191Z,25.36
2022-08-21T09:39:15.518Z,25.36
2022-08-21T09:39:52.965Z,25.35
2022-08-21T09:40:52.958Z,25.31
2022-08-21T09:41:45.264Z,25.29
2022-08-21T09:42:25.617Z,25.32
2022-08-21T09:43:03.520Z,25.33
2022-08-21T09:43:42.684Z,25.35
2022-08-21T09:44:27.907Z,25.34
2022-08-21T09:45:15.037Z,25.32
2022-08-21T09:46:07.261Z,25.35
2022-08-21T09:46:53.642Z,25.32
2022-08-21T09:47:31.931Z,25.31
2022-08-21T09:48:17.763Z,25.32
2022-08-21T09:48:55.943Z,25.32
2022-08-21T09:49:33.405Z,25.29
2022-08-21T09:50:17.129Z,25.31
2022-08-21T09:51:02.610Z,25.29
2022-08-21T09:51:46.356Z,25.30
2022-08-21T09:52:23.738Z,25.30
2022-08-21T09:53:01.426Z,25.31
2022-08-21T09:53:43.122Z,25.33
2022-08-21T09:54:26.804Z,25.37
2022-08-21T09:55:04.012Z,25.40
2022-08-21T09:55:56.047Z,25.37
2022-08-21T09:56:33.239Z,25.36
2022-08-21T09:57:09.263Z,25.38
2022-08-21T09:57:50.452Z,25.38
2022-08-21T09:58:39.113Z,25.39
2022-08-21T09:59:21.621Z,25.37
2022-08-21T09:59:59.065Z,25.39
2022-08-21T10:00:36.324Z,25.40
2022-08-21T10:01:21.943Z,25.39
2022-08-21T10:02:00.429Z,25.36
2022-08-21T10:02:38.594Z,25.39
2022-08-21T10:03:24.839Z,25.38
2022-08-21T10:04:17.719Z,25.37
2022-08-21T10:04:58.502Z,25.36
2022-08-21T10:05:36.636Z,25.33
2022-08-21T10:06:14.744Z,25.29
2022-08-21T10:06:52.670Z,25.31
2022-08-21T10:07:34.563Z,25.35
2022-08-21T10:08:20.098Z,25.34
2022-08-21T10:09:15.235Z,25.33
2022-08-21T10:10:04.463Z,25.38
2022-08-21T10:10:43.072Z,25.39
2022-08-21T10:11:20.540Z,25.42
2022-08-21T10:12:14.013Z,25.42
2022-08-21T10:13:03.869Z,25.40
2022-08-21T10:13:48.083Z,25.40
2022-08-21T10:14:31.819Z,25.39
2022-08-21T10:15:27.132Z,25.40
2022-08-21T10:16:16.956Z,25.39
2022-08-21T10:17:24.423Z,25.36
2022-08-21T10:18:07.773Z,25.38
2022-08-21T10:18:44.773Z,25.37
2022-08-21T10:19:24.837Z,25.36
2022-08-21T10:20:05.385Z,25.35
2022-08-21T10:20:46.523Z,25.33
2022-08-21T10:21:26.415Z,25.38
2022-08-21T10:22:04.091Z,25.39
2022-08-21T10:22:58.187Z,25.38
2022-08-21T10:23:37.315Z,25.38
2022-08-21T10:24:30.540Z,25.36
2022-08-21T10:25:09.807Z,25.35
2022-08-21T10:26:13.840Z,25.33
2022-08-21T10:27:12.866Z,25.36
2022-08-21T10:27:48.372Z,25.36
2022-08-21T10:28:29.480Z,25.36
2022-08-21T10:29:05.528Z,25.38
2022-08-21T10:29:58.958Z,25.38
2022-08-21T10:30:41.038Z,25.40
2022-08-21T10:31:35.503Z,25.38
2022-08-21T10:32:26.245Z,25.36
2022-08-21T10:33:12.928Z,25.37
2022-08-21T10:33:49.365Z,25.38
2022-08-21T10:34:47.784Z,25.37
2022-08-21T10:35:23.387Z,25.37
2022-08-21T10:36:10.159Z,25.38
2022-08-21T10:37:10.823Z,25.30
2022-08-21T10:38:01.870Z,25.36
2022-08-21T10:39:54.243Z,25.36
2022-08-21T10:41:09.097Z,25.39
2022-08-21T10:41:48.982Z,25.36
2022-08-21T10:42:36.275Z,25.38
2022-08-21T10:43:16.801Z,25.39
2022-08-21T10:44:13.489Z,25.38
2022-08-21T10:44:49.633Z,25.36
2022-08-21T10:45:28.018Z,25.32
2022-08-21T10:46:06.624Z,25.32
2022-08-21T10:46:48.579Z,25.33
2022-08-21T10:47:29.873Z,25.36
2022-08-21T10:48:07.938Z,25.36
2022-08-21T10:49:05.193Z,25.38
2022-08-21T10:49:50.079Z,25.39
2022-08-21T10:50:28.024Z,25.37
2022-08-21T10:51:13.471Z,25.40
2022-08-21T10:52:06.072Z,25.39
2022-08-21T10:53:04.271Z,25.43
2022-08-21T10:53:45.656Z,25.46
2022-08-21T10:54:45.059Z,25.46
2022-08-21T10:55:28.002Z,25.44
2022-08-21T10:56:19.145Z,25.42
2022-08-21T10:56:58.305Z,25.42
2022-08-21T10:57:37.522Z,25.37
2022-08-21T10:58:33.117Z,25.38
2022-08-21T10:59:14.809Z,25.38
2022-08-21T10:59:54.563Z,25.40
2022-08-21T11:00:37.903Z,25.40
2022-08-21T11:01:18.684Z,25.40
2022-08-21T11:02:11.915Z,25.40
2022-08-21T11:02:50.461Z,25.39
2022-08-21T11:03:29.728Z,25.39
2022-08-21T11:04:14.564Z,25.42
2022-08-21T11:05:00.828Z,25.40
2022-08-21T11:05:41.416Z,25.40
2022-08-21T11:06:31.964Z,25.40
2022-08-21T11:07:17.383Z,25.40
2022-08-21T11:07:58.984Z,25.42
2022-08-21T11:08:40.750Z,25.40
2022-08-21T11:09:30.522Z,25.36
2022-08-21T11:10:31.241Z,25.36
2022-08-21T11:11:10.596Z,25.40
2022-08-21T11:12:11.485Z,25.38
2022-08-21T11:13:01.326Z,25.39
2022-08-21T11:13:41.638Z,25.36
2022-08-21T11:14:20.637Z,25.38
2022-08-21T11:14:56.457Z,25.37
2022-08-21T11:15:42.423Z,25.39
2022-08-21T11:16:24.125Z,25.39
2022-08-21T11:17:01.786Z,25.37
2022-08-21T11:17:40.216Z,25.42
2022-08-21T11:18:20.878Z,25.42
2022-08-21T11:19:03.999Z,25.39
2022-08-21T11:19:55.517Z,25.42
2022-08-21T11:20:33.435Z,25.39
2022-08-21T11:21:18.081Z,25.37
2022-08-21T11:22:15.464Z,25.40
2022-08-21T11:23:07.292Z,25.38
2022-08-21T11:23:48.188Z,25.40
2022-08-21T11:24:43.127Z,25.42
2022-08-21T11:25:36.578Z,25.39
2022-08-21T11:26:21.942Z,25.39
2022-08-21T11:27:13.209Z,25.40
2022-08-21T11:27:51.328Z,25.41
2022-08-21T11:28:34.876Z,25.43
2022-08-21T11:29:11.315Z,25.47
2022-08-21T11:29:49.870Z,25.48
2022-08-21T11:30:30.998Z,25.48
2022-08-21T11:31:22.787Z,25.42
2022-08-21T11:32:07.133Z,25.44
2022-08-21T11:32:57.556Z,25.47
2022-08-21T11:33:38.708Z,25.49
2022-08-21T11:34:17.027Z,25.45
2022-08-21T11:35:11.853Z,25.50
2022-08-21T11:36:01.857Z,25.47
2022-08-21T11:36:37.300Z,25.48
2022-08-21T11:37:23.354Z,25.50
2022-08-21T11:38:11.127Z,25.49
2022-08-21T11:38:53.273Z,25.45
2022-08-21T11:39:31.670Z,25.48
2022-08-21T11:40:13.982Z,25.52
2022-08-21T11:40:49.882Z,25.50
2022-08-21T11:41:25.131Z,25.53
2022-08-21T11:42:08.973Z,25.55
2022-08-21T11:42:48.466Z,25.54
2022-08-21T11:43:29.787Z,25.50
2022-08-21T11:44:18.021Z,25.47
2022-08-21T11:45:04.826Z,25.46
2022-08-21T11:45:58.687Z,25.51
2022-08-21T11:46:34.335Z,25.52
2022-08-21T11:47:17.372Z,25.51
2022-08-21T11:47:57.925Z,25.50
2022-08-21T11:48:43.003Z,25.49
2022-08-21T11:49:39.467Z,25.51
2022-08-21T11:50:32.519Z,25.54
2022-08-21T11:51:17.350Z,25.51
2022-08-21T11:51:55.614Z,25.54
2022-08-21T11:52:39.723Z,25.53
2022-08-21T11:53:24.316Z,25.54
2022-08-21T11:54:09.040Z,25.54
2022-08-21T11:54:50.223Z,25.54
2022-08-21T11:55:35.573Z,25.53
2022-08-21T11:56:16.888Z,25.51
2022-08-21T11:57:03.631Z,25.54
2022-08-21T11:57:44.832Z,25.52